createdAt,value
2023-04-16T00:00:58.716Z,99627.44
2023-04-16T00:05:10.471Z,99641.25
2023-04-16T00:09:13.426Z,99636.94
2023-04-16T00:13:16.675Z,99635.16
2023-04-16T00:17:22.443Z,99642.09
2023-04-16T00:21:26.704Z,99642.94
2023-04-16T00:25:29.899Z,99637.69
2023-04-16T00:29:33.975Z,99643.78
2023-04-16T00:33:39.535Z,99641.25
2023-04-16T00:37:45.875Z,99645.56
2023-04-16T00:41:49.485Z,99650.19
2023-04-16T00:45:53.093Z,99654.72
2023-04-16T00:49:57.524Z,99653.94
2023-04-16T00:54:03.186Z,99656.69
2023-04-16T00:58:06.637Z,99655.72
2023-04-16T01:02:13.031Z,99664.25
2023-04-16T01:06:19.106Z,99661.25
2023-04-16T01:10:22.419Z,99658.94
2023-04-16T01:14:28.427Z,99658.28
2023-04-16T01:18:31.230Z,99657.97
2023-04-16T01:22:35.844Z,99655.81
2023-04-16T01:26:38.628Z,99655.53
2023-04-16T01:30:41.813Z,99656.38
2023-04-16T01:34:45.090Z,99660.59
2023-04-16T01:38:49.270Z,99657.38
2023-04-16T01:42:52.583Z,99647.16
2023-04-16T01:46:55.450Z,99657.19
2023-04-16T01:51:01.806Z,99663.94
2023-04-16T01:55:06.893Z,99658.50
2023-04-16T01:59:10.237Z,99665.38
2023-04-16T02:03:13.708Z,99670.38
2023-04-16T02:07:17.009Z,99672.53
2023-04-16T02:11:21.190Z,99675.97
2023-04-16T02:15:25.550Z,99687.25
2023-04-16T02:19:28.918Z,99689.97
2023-04-16T02:23:31.677Z,99697.66
2023-04-16T02:27:36.980Z,99690.75
2023-04-16T02:31:40.311Z,99704.81
2023-04-16T02:35:43.471Z,99705.53
2023-04-16T02:39:47.638Z,99700.41
2023-04-16T02:43:52.116Z,99708.19
2023-04-16T02:47:55.293Z,99705.47
2023-04-16T02:51:58.103Z,99713.44
2023-04-16T02:56:01.204Z,99714.47
2023-04-16T03:00:06.434Z,99721.25
2023-04-16T03:04:09.566Z,99710.06
2023-04-16T03:08:12.421Z,99719.84
2023-04-16T03:12:15.544Z,99717.94
2023-04-16T03:16:19.982Z,99722.16
2023-04-16T03:20:22.896Z,99720.50
2023-04-16T03:24:28.551Z,99721.31
2023-04-16T03:28:31.489Z,99719.06
2023-04-16T03:32:36.324Z,99720.84
2023-04-16T03:36:39.457Z,99720.75
2023-04-16T03:40:42.527Z,99724.31
2023-04-16T03:44:45.542Z,99728.84
2023-04-16T03:48:50.094Z,99732.22
2023-04-16T03:52:53.017Z,99731.34
2023-04-16T03:56:57.341Z,99739.25
2023-04-16T04:01:00.454Z,99741.13
2023-04-16T04:05:07.849Z,99748.06
2023-04-16T04:09:13.691Z,99748.81
2023-04-16T04:13:16.476Z,99767.97
2023-04-16T04:17:19.623Z,99762.63
2023-04-16T04:21:24.118Z,99764.03
2023-04-16T04:25:27.449Z,99765.53
2023-04-16T04:29:31.862Z,99775.91
2023-04-16T04:33:35.089Z,99780.97
2023-04-16T04:37:39.798Z,99778.09
2023-04-16T04:41:43.083Z,99783.88
2023-04-16T04:45:46.125Z,99784.56
2023-04-16T04:49:51.710Z,99787.78
2023-04-16T04:53:55.749Z,99797.91
2023-04-16T04:58:01.237Z,99791.34
2023-04-16T05:02:04.519Z,99797.56
2023-04-16T05:06:08.488Z,99796.53
2023-04-16T05:10:12.989Z,99799.16
2023-04-16T05:14:15.795Z,99799.53
2023-04-16T05:18:18.886Z,99800.19
2023-04-16T05:22:21.846Z,99804.91
2023-04-16T05:26:25.983Z,99812.44
2023-04-16T05:30:28.950Z,99814.78
2023-04-16T05:34:31.618Z,99813.94
2023-04-16T05:38:36.264Z,99819.28
2023-04-16T05:42:40.785Z,99826.50
2023-04-16T05:46:43.713Z,99820.53
2023-04-16T05:50:48.924Z,99818.69
2023-04-16T05:54:51.730Z,99822.63
2023-04-16T05:58:56.012Z,99832.38
2023-04-16T06:02:59.446Z,99830.50
2023-04-16T06:07:02.859Z,99838.31
2023-04-16T06:11:06.888Z,99835.25
2023-04-16T06:15:13.484Z,99845.06
2023-04-16T06:19:16.810Z,99844.22
2023-04-16T06:23:19.935Z,99847.16
2023-04-16T06:27:22.635Z,99852.13
2023-04-16T06:31:27.148Z,99856.06
2023-04-16T06:35:30.315Z,99856.41
2023-04-16T06:39:33.443Z,99861.56
2023-04-16T06:43:36.288Z,99864.41
2023-04-16T06:47:40.711Z,99870.97
2023-04-16T06:51:43.659Z,99872.69
2023-04-16T06:55:46.341Z,99871.97
2023-04-16T06:59:49.525Z,99887.28
2023-04-16T07:03:54.155Z,99883.06
2023-04-16T07:07:57.863Z,99887.28
2023-04-16T07:12:01.114Z,99900.72
2023-04-16T07:16:03.488Z,99901.81
2023-04-16T07:20:11.157Z,99897.06
2023-04-16T07:24:14.122Z,99904.47
2023-04-16T07:28:17.803Z,99911.22
2023-04-16T07:32:22.733Z,99898.69
2023-04-16T07:36:27.673Z,99893.19
2023-04-16T07:40:33.424Z,99909.66
2023-04-16T07:44:36.496Z,99925.41
2023-04-16T07:48:39.285Z,99929.38
2023-04-16T07:52:48.172Z,99940.59
2023-04-16T07:56:51.222Z,99932.59
2023-04-16T08:00:54.521Z,99944.75
2023-04-16T08:04:58.119Z,99943.03
2023-04-16T08:09:02.708Z,99948.03
2023-04-16T08:13:06.129Z,99943.28
2023-04-16T08:17:09.406Z,99946.16
2023-04-16T08:21:13.716Z,99948.19
2023-04-16T08:25:18.805Z,99953.22
2023-04-16T08:29:22.007Z,99957.41
2023-04-16T08:33:25.305Z,99958.38
2023-04-16T08:37:28.562Z,99961.41
2023-04-16T08:41:34.472Z,99962.25
2023-04-16T08:45:38.236Z,99961.47
2023-04-16T08:49:45.489Z,99965.81
2023-04-16T08:53:53.287Z,99972.25
2023-04-16T08:58:02.444Z,99973.09
2023-04-16T09:02:07.723Z,99978.75
2023-04-16T09:06:11.595Z,99981.19
2023-04-16T09:10:17.282Z,99979.13
2023-04-16T09:14:22.299Z,99984.59
2023-04-16T09:18:28.350Z,99991.84
2023-04-16T09:22:31.185Z,99994.44
2023-04-16T09:26:34.177Z,100009.38
2023-04-16T09:30:39.138Z,100001.66
2023-04-16T09:34:59.532Z,100003.72
2023-04-16T09:39:04.073Z,100011.69
2023-04-16T09:43:13.021Z,100004.13
2023-04-16T09:47:17.256Z,100006.94
2023-04-16T09:51:20.443Z,100009.00
2023-04-16T09:55:24.995Z,100011.59
2023-04-16T09:59:31.375Z,100021.63
2023-04-16T10:03:37.264Z,100020.66
2023-04-16T10:07:40.703Z,100031.25
2023-04-16T10:11:46.143Z,100026.47
2023-04-16T10:15:50.076Z,100034.41
2023-04-16T10:19:59.169Z,100025.97
2023-04-16T10:24:02.775Z,100033.31
2023-04-16T10:28:07.503Z,100035.28
2023-04-16T10:32:10.970Z,100037.25
2023-04-16T10:36:16.027Z,100042.56
2023-04-16T10:40:26.888Z,100036.03
2023-04-16T10:44:35.644Z,100039.41
2023-04-16T10:48:49.645Z,100044.00
2023-04-16T10:53:34.865Z,100054.56
2023-04-16T10:57:37.910Z,100058.19
2023-04-16T11:01:44.397Z,100063.19
2023-04-16T11:05:50.156Z,100063.31
2023-04-16T11:09:56.940Z,100062.50
2023-04-16T11:14:00.140Z,100058.81
2023-04-16T11:18:04.240Z,100065.78
2023-04-16T11:22:07.124Z,100066.88
2023-04-16T11:26:21.055Z,100074.25
2023-04-16T11:30:32.025Z,100071.94
2023-04-16T11:34:35.346Z,100063.38
2023-04-16T11:38:41.266Z,100068.69
2023-04-16T11:42:45.559Z,100069.44
2023-04-16T11:46:48.663Z,100073.13
2023-04-16T11:50:58.282Z,100068.28
2023-04-16T11:55:01.756Z,100060.34
2023-04-16T11:59:11.488Z,100067.00
2023-04-16T12:03:17.670Z,100064.03
2023-04-16T12:07:20.826Z,100058.66
2023-04-16T12:11:38.636Z,100060.25
2023-04-16T12:15:51.118Z,100063.75
2023-04-16T12:19:58.395Z,100059.22
2023-04-16T12:24:01.482Z,100062.53
2023-04-16T12:28:04.763Z,100054.63
2023-04-16T12:32:22.675Z,100054.25
2023-04-16T12:36:26.471Z,100046.34
2023-04-16T12:40:29.798Z,100037.50
2023-04-16T12:44:32.883Z,100039.81
2023-04-16T12:48:38.299Z,100033.66
2023-04-16T12:52:41.339Z,100036.47
2023-04-16T12:56:44.223Z,100036.59
2023-04-16T13:00:47.062Z,100042.75
2023-04-16T13:04:51.480Z,100037.81
2023-04-16T13:08:56.697Z,100037.72
2023-04-16T13:12:59.522Z,100032.03
2023-04-16T13:17:05.187Z,100041.72
2023-04-16T13:21:10.142Z,100037.06
2023-04-16T13:25:13.179Z,100037.44
2023-04-16T13:29:16.016Z,100037.28
2023-04-16T13:33:22.278Z,100032.91
2023-04-16T13:37:26.786Z,100037.34
2023-04-16T13:41:29.539Z,100047.63
2023-04-16T13:45:32.705Z,100041.72
2023-04-16T13:49:38.466Z,100040.19
2023-04-16T13:53:43.311Z,100048.00
2023-04-16T13:57:47.651Z,100047.50
2023-04-16T14:01:50.786Z,100046.41
2023-04-16T14:05:54.106Z,100042.59
2023-04-16T14:09:58.785Z,100038.25
2023-04-16T14:14:02.005Z,100035.06
2023-04-16T14:18:05.279Z,100040.00
2023-04-16T14:22:09.381Z,100044.53
2023-04-16T14:26:14.141Z,100043.00
2023-04-16T14:30:17.324Z,100047.78
2023-04-16T14:34:19.906Z,100049.72
2023-04-16T14:38:25.903Z,100054.41
2023-04-16T14:42:33.267Z,100055.72
2023-04-16T14:46:38.811Z,100050.41
2023-04-16T14:50:44.290Z,100049.59
2023-04-16T14:54:49.118Z,100055.53
2023-04-16T14:58:53.834Z,100052.66
2023-04-16T15:02:56.885Z,100059.88
2023-04-16T15:07:00.470Z,100057.41
2023-04-16T15:11:03.796Z,100048.09
2023-04-16T15:15:12.094Z,100059.34
2023-04-16T15:19:15.406Z,100056.59
2023-04-16T15:23:18.487Z,100062.25
2023-04-16T15:27:21.573Z,100067.38
2023-04-16T15:31:26.526Z,100068.53
2023-04-16T15:35:29.996Z,100075.41
2023-04-16T15:39:33.323Z,100077.75
2023-04-16T15:43:37.748Z,100074.75
2023-04-16T15:47:42.528Z,100085.06
2023-04-16T15:51:45.416Z,100089.72
2023-04-16T15:55:49.896Z,100083.97
2023-04-16T16:00:06.039Z,100090.09
2023-04-16T16:04:11.618Z,100086.81
2023-04-16T16:08:18.627Z,100088.00
2023-04-16T16:12:21.445Z,100103.13
2023-04-16T16:16:24.569Z,100094.28
2023-04-16T16:20:32.250Z,100096.03
2023-04-16T16:24:35.793Z,100103.69
2023-04-16T16:28:43.970Z,100115.88
2023-04-16T16:32:49.604Z,100112.28
2023-04-16T16:36:54.118Z,100116.56
2023-04-16T16:40:57.175Z,100118.34
2023-04-16T16:44:59.967Z,100124.41
2023-04-16T16:49:05.423Z,100125.03
2023-04-16T16:53:10.021Z,100134.03
2023-04-16T16:57:18.580Z,100134.97
2023-04-16T17:01:21.426Z,100145.53
2023-04-16T17:05:25.928Z,100140.13
2023-04-16T17:09:30.365Z,100143.59
2023-04-16T17:13:34.555Z,100145.56
2023-04-16T17:17:41.897Z,100151.03
2023-04-16T17:21:44.753Z,100157.63
2023-04-16T17:25:49.205Z,100154.34
2023-04-16T17:29:55.913Z,100164.00
2023-04-16T17:34:00.381Z,100176.44
2023-04-16T17:38:03.632Z,100179.75
2023-04-16T17:42:08.032Z,100177.00
2023-04-16T17:46:15.045Z,100184.63
2023-04-16T17:50:18.109Z,100192.16
2023-04-16T17:54:21.312Z,100192.63
2023-04-16T17:58:26.629Z,100198.53
2023-04-16T18:02:32.392Z,100207.06
2023-04-16T18:06:38.354Z,100202.44
2023-04-16T18:10:43.248Z,100212.75
2023-04-16T18:14:47.792Z,100209.59
2023-04-16T18:18:51.030Z,100204.94
2023-04-16T18:22:54.175Z,100210.13
2023-04-16T18:26:56.893Z,100215.06
2023-04-16T18:31:05.716Z,100220.66
2023-04-16T18:35:09.518Z,100216.59
2023-04-16T18:39:14.473Z,100220.50
2023-04-16T18:43:27.906Z,100225.56
2023-04-16T18:47:32.263Z,100224.28
2023-04-16T18:51:35.608Z,100229.19
2023-04-16T18:55:38.524Z,100229.50
2023-04-16T18:59:41.341Z,100227.91
2023-04-16T19:03:45.666Z,100228.13
2023-04-16T19:07:48.971Z,100223.97
2023-04-16T19:11:51.852Z,100219.28
2023-04-16T19:16:00.067Z,100228.81
2023-04-16T19:20:08.102Z,100225.28
2023-04-16T19:24:13.661Z,100232.72
2023-04-16T19:28:17.196Z,100230.72
2023-04-16T19:32:20.151Z,100233.25
2023-04-16T19:36:25.002Z,100233.69
2023-04-16T19:40:28.120Z,100226.34
2023-04-16T19:44:32.578Z,100226.16
2023-04-16T19:48:37.317Z,100212.88
2023-04-16T19:52:41.354Z,100220.56
2023-04-16T19:56:46.709Z,100222.03
2023-04-16T20:00:51.568Z,100230.44
2023-04-16T20:04:54.558Z,100229.88
2023-04-16T20:09:01.655Z,100219.75
2023-04-16T20:13:05.125Z,100227.44
2023-04-16T20:17:10.339Z,100227.94
2023-04-16T20:21:16.883Z,100224.75
2023-04-16T20:25:22.827Z,100221.53
2023-04-16T20:29:25.862Z,100226.66
2023-04-16T20:33:31.267Z,100233.72
2023-04-16T20:37:38.297Z,100238.91
2023-04-16T20:41:44.439Z,100237.28
2023-04-16T20:45:47.676Z,100235.47
2023-04-16T20:49:50.926Z,100226.25
2023-04-16T20:53:59.511Z,100228.28
2023-04-16T20:58:04.235Z,100219.84
2023-04-16T21:02:09.464Z,100227.16
2023-04-16T21:06:14.861Z,100222.94
2023-04-16T21:10:20.491Z,100215.94
2023-04-16T21:14:25.230Z,100216.91
2023-04-16T21:18:28.403Z,100214.31
2023-04-16T21:22:31.348Z,100222.41
2023-04-16T21:26:34.246Z,100225.47
2023-04-16T21:30:39.096Z,100219.34
2023-04-16T21:34:42.403Z,100219.38
2023-04-16T21:38:45.718Z,100220.50
2023-04-16T21:42:49.007Z,100215.50
2023-04-16T21:46:53.191Z,100218.41
2023-04-16T21:50:58.299Z,100221.25
2023-04-16T21:55:01.296Z,100222.22
2023-04-16T21:59:04.027Z,100224.94
2023-04-16T22:03:09.171Z,100222.41
2023-04-16T22:07:12.295Z,100214.78
2023-04-16T22:11:24.710Z,100217.69
2023-04-16T22:15:37.124Z,100216.22
2023-04-16T22:19:42.550Z,100213.94
2023-04-16T22:23:49.687Z,100214.13
2023-04-16T22:27:56.310Z,100223.59
2023-04-16T22:32:02.405Z,100225.59
2023-04-16T22:36:07.680Z,100220.16
2023-04-16T22:40:14.394Z,100223.44
2023-04-16T22:44:17.174Z,100223.03
2023-04-16T22:48:20.025Z,100222.09
2023-04-16T22:52:24.534Z,100219.25
2023-04-16T22:56:29.101Z,100223.34
2023-04-16T23:00:32.230Z,100225.03
2023-04-16T23:04:35.259Z,100225.25
2023-04-16T23:08:42.192Z,100224.56
2023-04-16T23:12:45.089Z,100227.41
2023-04-16T23:16:48.160Z,100222.53
2023-04-16T23:20:53.103Z,100221.41
2023-04-16T23:24:57.260Z,100212.56
2023-04-16T23:29:00.753Z,100219.47
2023-04-16T23:33:04.718Z,100216.88
2023-04-16T23:37:07.584Z,100214.47
2023-04-16T23:41:12.072Z,100212.25
2023-04-16T23:45:14.960Z,100204.78
2023-04-16T23:49:17.696Z,100209.31
2023-04-16T23:53:20.964Z,100214.50
2023-04-16T23:57:25.166Z,100208.34
